»·PEaware :: XOJ551 KJAC-KDEN

XOJ551 :: KJAC-KDEN

FLIGHT INFORMATION

Flight Status: Arrived
Operator:
XOJET
More flights by this operator :: More flights under this callsign
Pilot: Hassan P. (16390)
Aircraft: BOMBARDIER BD-100 CHALLENGER 300
(CL30)
More flights by this aircraft type
Origin: KJAC Jackson Hole
United States
Destination: KDEN Denver Intl
United States
More flights between these airports :: More routes between these airports
Route: +ALPIN2 SWEAT CKW MOLTN3
File this flight plan on PilotEdge
Remarks:
Altitude:
(Current/Filed)
35,000ft
Speed:
(Current/Filed)
477kts
Departed: 10-May-18 04:19 PM
Arrived: 10-May-18 05:29 PM
Distance/Time
Traveled:
353nm/1:09
Distance/Time
To Go:
Arrived

Flight Plot

Page will automatically refresh every two minutes.

Flight plan parsing failed; only flown route is shown


Map Options




Map Legend


Flown Route
Filed Route
Departure Airport
Arrival Airport
Navaid (VOR, NDB)
Fix

Horizontal Profiles

Position Reports

Time Latitude Longitude Heading Altitude Ground
Speed
10-May-18 16:01 43.601864 -110.737780 110 6422ft 0kts
10-May-18 16:02 43.601864 -110.737780 110 6422ft 0kts
10-May-18 16:03 43.601864 -110.737780 110 6422ft 0kts
10-May-18 16:04 43.601864 -110.737780 110 6422ft 0kts
10-May-18 16:05 43.601864 -110.737780 110 6422ft 0kts
10-May-18 16:06 43.601864 -110.737780 110 6422ft 0kts
10-May-18 16:07 43.601864 -110.737780 110 6422ft 0kts
10-May-18 16:08 43.601864 -110.737780 110 6422ft 0kts
10-May-18 16:09 43.601864 -110.737780 110 6422ft 0kts
10-May-18 16:10 43.601864 -110.737780 110 6422ft 0kts
10-May-18 16:11 43.601864 -110.737780 110 6422ft 0kts
10-May-18 16:12 43.602351 -110.738138 347 6422ft 6kts
10-May-18 16:13 43.605327 -110.737140 19 6428ft 9kts
10-May-18 16:14 43.608282 -110.735706 20 6434ft 10kts
10-May-18 16:15 43.610353 -110.734689 18 6438ft 6kts
10-May-18 16:16 43.613073 -110.733367 19 6443ft 10kts
10-May-18 16:17 43.614831 -110.732569 357 6447ft 0kts
10-May-18 16:18 43.614896 -110.732581 348 6447ft 0kts
10-May-18 16:19 43.611658 -110.735672 200 6439ft 91kts
10-May-18 16:20 43.573329 -110.757766 208 8880ft 203kts
10-May-18 16:21 43.518574 -110.794107 207 12226ft 278kts
10-May-18 16:22 43.448143 -110.840060 207 15517ft 336kts
10-May-18 16:23 43.368246 -110.891759 207 18720ft 369kts
10-May-18 16:24 43.285790 -110.944864 207 21840ft 365kts
10-May-18 16:25 43.194889 -110.937323 147 22968ft 438kts
10-May-18 16:26 43.111473 -110.834334 142 23702ft 419kts
10-May-18 16:27 43.038130 -110.735648 142 25913ft 410kts
10-May-18 16:28 42.978755 -110.654373 142 27716ft 403kts
10-May-18 16:29 42.905986 -110.554492 141 29534ft 404kts
10-May-18 16:30 42.841542 -110.466076 142 31201ft 401kts
10-May-18 16:31 42.767958 -110.365408 142 33122ft 394kts
10-May-18 16:32 42.701672 -110.275071 143 34546ft 394kts
10-May-18 16:33 42.624505 -110.170331 142 35025ft 421kts
10-May-18 16:34 42.571049 -110.023216 105 35019ft 491kts
10-May-18 16:35 42.558744 -109.843540 101 35021ft 502kts
10-May-18 16:36 42.544692 -109.658713 101 35028ft 504kts
10-May-18 16:37 42.529838 -109.471644 101 35025ft 497kts
10-May-18 16:38 42.515001 -109.289343 102 34972ft 493kts
10-May-18 16:39 42.500867 -109.119350 101 34913ft 490kts
10-May-18 16:40 42.485917 -108.942891 100 34917ft 491kts
10-May-18 16:41 42.470766 -108.766648 100 34920ft 494kts
10-May-18 16:42 42.455403 -108.591391 100 34918ft 496kts
10-May-18 16:43 42.409474 -108.429567 133 34920ft 472kts
10-May-18 16:44 42.334457 -108.317912 140 34892ft 469kts
10-May-18 16:45 42.245780 -108.200704 142 34923ft 466kts
10-May-18 16:46 42.157611 -108.087999 142 34991ft 465kts
10-May-18 16:47 42.069264 -107.975919 142 35053ft 467kts
10-May-18 16:48 41.979655 -107.862751 142 35051ft 468kts
10-May-18 16:49 41.891220 -107.751541 142 35056ft 469kts
10-May-18 16:50 41.818619 -107.660579 142 35060ft 470kts
10-May-18 16:51 41.737993 -107.545213 131 35060ft 476kts
10-May-18 16:52 41.670665 -107.417933 130 35061ft 472kts
10-May-18 16:53 41.610039 -107.302410 130 35054ft 473kts
10-May-18 16:54 41.547450 -107.183228 131 35054ft 473kts
10-May-18 16:55 41.481892 -107.058834 131 35039ft 474kts
10-May-18 16:56 41.414965 -106.932312 131 34760ft 472kts
10-May-18 16:57 41.347776 -106.806156 130 32276ft 483kts
10-May-18 16:58 41.278182 -106.675941 129 30866ft 504kts
10-May-18 16:59 41.205221 -106.539908 128 29998ft 525kts
10-May-18 17:00 41.133344 -106.406431 128 29228ft 509kts
10-May-18 17:01 41.064008 -106.278240 128 27648ft 516kts
10-May-18 17:02 40.995842 -106.152317 129 25746ft 472kts
10-May-18 17:03 40.929893 -106.031057 130 23953ft 448kts
10-May-18 17:04 40.877972 -105.935999 130 23032ft 417kts
10-May-18 17:05 40.829727 -105.848148 130 22173ft 428kts
10-May-18 17:06 40.765770 -105.731972 130 20128ft 434kts
10-May-18 17:07 40.705209 -105.622235 130 17602ft 383kts
10-May-18 17:08 40.651240 -105.524798 130 17037ft 340kts
10-May-18 17:09 40.600944 -105.434195 130 17046ft 347kts
10-May-18 17:10 40.551200 -105.343558 130 17029ft 344kts
10-May-18 17:11 40.504258 -105.258327 132 17023ft 338kts
10-May-18 17:12 40.438668 -105.196898 153 17022ft 319kts
10-May-18 17:13 40.367888 -105.138095 153 17025ft 328kts
10-May-18 17:14 40.297246 -105.081090 153 16325ft 343kts
10-May-18 17:15 40.226828 -105.024509 152 14230ft 328kts
10-May-18 17:16 40.163701 -104.973810 152 13042ft 307kts
10-May-18 17:17 40.098339 -104.921519 151 11783ft 309kts
10-May-18 17:18 40.039543 -104.874552 151 9910ft 290kts
10-May-18 17:19 39.988047 -104.833521 150 8633ft 276kts
10-May-18 17:20 39.934698 -104.810142 181 8017ft 230kts
10-May-18 17:21 39.889975 -104.809155 182 8035ft 252kts
10-May-18 17:22 39.838606 -104.809133 183 8018ft 257kts
10-May-18 17:23 39.794788 -104.809623 183 8018ft 243kts
10-May-18 17:24 39.754245 -104.810179 179 8022ft 244kts
10-May-18 17:25 39.729001 -104.753937 87 7579ft 260kts
10-May-18 17:26 39.733499 -104.671290 59 6996ft 212kts
10-May-18 17:27 39.777728 -104.661486 357 6434ft 214kts
10-May-18 17:28 39.832451 -104.660532 356 5424ft 148kts
10-May-18 17:29 39.849190 -104.661658 330 5402ft 0kts
10-May-18 17:30 39.849389 -104.661810 329 5402ft 0kts
10-May-18 17:31 39.849739 -104.662082 329 5402ft 8kts
10-May-18 17:32 39.846585 -104.662481 180 5394ft 18kts
10-May-18 17:33 39.841715 -104.662536 179 5395ft 14kts
10-May-18 17:34 39.839459 -104.665146 199 5387ft 10kts
10-May-18 17:35 39.839239 -104.664903 84 5389ft 0kts

Navigation Log

Ident Type
Flight plan parsing failed, navigation log unavailable